Nabulus, West Bank
Current Conditions -  °F | °C
As of 3:20 AM on Tuesday 25 Nov 2014 (Local Time) from LLBG Reporting Station
Clear Clear  
Wind Chill: 54°   Ceiling: Unl
Heat Index: 54°   Visibility: 6mi
Dew Point: 50°   Wind: 5mph
Humidity: 88%   Direction: 120°ESE
Pressure: 29.97"   Gusts: NA
Location:  32.23°N, 35.27°E
Report Text: LLBG 250020Z 12004KT CAVOK 12/10 Q1015 NOSIG
Loading
Personal Weather Stations






























Interactive Weather Map New forecast layout! Learn more

10-Day Weather Forecast

Advertisements
Track Severe Weather on mobile